sensor_id;sensor_type;location;lat;lon;timestamp;P1;durP1;ratioP1;P2;durP2;ratioP2
52740;SDS011;38634;52.138;9.912;2023-07-20T00:01:40;15.73;;;3.78;;
52740;SDS011;38634;52.138;9.912;2023-07-20T00:04:28;13.02;;;2.97;;
52740;SDS011;38634;52.138;9.912;2023-07-20T00:07:12;14.35;;;3.30;;
52740;SDS011;38634;52.138;9.912;2023-07-20T00:10:00;13.45;;;2.83;;
52740;SDS011;38634;52.138;9.912;2023-07-20T00:12:45;13.50;;;2.92;;
52740;SDS011;38634;52.138;9.912;2023-07-20T00:15:35;13.00;;;2.75;;
52740;SDS011;38634;52.138;9.912;2023-07-20T00:18:21;14.52;;;3.17;;
52740;SDS011;38634;52.138;9.912;2023-07-20T00:21:06;13.98;;;3.03;;
52740;SDS011;38634;52.138;9.912;2023-07-20T00:23:50;14.05;;;2.92;;
52740;SDS011;38634;52.138;9.912;2023-07-20T00:26:35;11.57;;;3.03;;
52740;SDS011;38634;52.138;9.912;2023-07-20T00:29:20;14.63;;;3.20;;
52740;SDS011;38634;52.138;9.912;2023-07-20T00:32:04;13.50;;;3.20;;
52740;SDS011;38634;52.138;9.912;2023-07-20T00:34:49;14.50;;;3.33;;
52740;SDS011;38634;52.138;9.912;2023-07-20T00:37:34;12.50;;;3.08;;
52740;SDS011;38634;52.138;9.912;2023-07-20T00:40:19;14.23;;;3.13;;
52740;SDS011;38634;52.138;9.912;2023-07-20T00:43:03;14.63;;;3.20;;
52740;SDS011;38634;52.138;9.912;2023-07-20T00:45:49;12.85;;;2.97;;
52740;SDS011;38634;52.138;9.912;2023-07-20T00:48:34;15.90;;;3.28;;
52740;SDS011;38634;52.138;9.912;2023-07-20T00:51:21;15.40;;;3.15;;
52740;SDS011;38634;52.138;9.912;2023-07-20T00:54:05;15.77;;;3.50;;
52740;SDS011;38634;52.138;9.912;2023-07-20T00:56:50;14.20;;;3.35;;
52740;SDS011;38634;52.138;9.912;2023-07-20T00:59:37;14.57;;;3.22;;
52740;SDS011;38634;52.138;9.912;2023-07-20T01:02:21;14.23;;;3.08;;
52740;SDS011;38634;52.138;9.912;2023-07-20T01:05:06;12.90;;;3.33;;
52740;SDS011;38634;52.138;9.912;2023-07-20T01:08:18;13.20;;;3.10;;
52740;SDS011;38634;52.138;9.912;2023-07-20T01:14:37;12.13;;;2.83;;
52740;SDS011;38634;52.138;9.912;2023-07-20T01:17:22;19.00;;;6.25;;
52740;SDS011;38634;52.138;9.912;2023-07-20T01:20:08;15.15;;;3.25;;
52740;SDS011;38634;52.138;9.912;2023-07-20T01:32:02;17.40;;;4.22;;
52740;SDS011;38634;52.138;9.912;2023-07-20T01:34:58;15.85;;;3.00;;
52740;SDS011;38634;52.138;9.912;2023-07-20T01:37:45;15.80;;;3.08;;
52740;SDS011;38634;52.138;9.912;2023-07-20T01:40:34;17.17;;;3.70;;
52740;SDS011;38634;52.138;9.912;2023-07-20T01:43:19;14.73;;;2.97;;
52740;SDS011;38634;52.138;9.912;2023-07-20T07:36:30;17.67;;;3.47;;
52740;SDS011;38634;52.138;9.912;2023-07-20T07:39:15;49.50;;;12.10;;
52740;SDS011;38634;52.138;9.912;2023-07-20T07:41:59;19.77;;;5.65;;
52740;SDS011;38634;52.138;9.912;2023-07-20T07:44:44;23.13;;;5.88;;
52740;SDS011;38634;52.138;9.912;2023-07-20T07:47:29;40.70;;;9.43;;
52740;SDS011;38634;52.138;9.912;2023-07-20T07:50:14;53.00;;;9.38;;
52740;SDS011;38634;52.138;9.912;2023-07-20T07:52:58;32.35;;;6.95;;
52740;SDS011;38634;52.138;9.912;2023-07-20T07:55:43;17.52;;;4.00;;
52740;SDS011;38634;52.138;9.912;2023-07-20T07:58:28;32.03;;;6.70;;
52740;SDS011;38634;52.138;9.912;2023-07-20T08:01:12;49.83;;;9.13;;
52740;SDS011;38634;52.138;9.912;2023-07-20T08:03:57;45.15;;;9.13;;
52740;SDS011;38634;52.138;9.912;2023-07-20T08:06:41;19.63;;;4.95;;
52740;SDS011;38634;52.138;9.912;2023-07-20T08:09:26;21.30;;;5.30;;
52740;SDS011;38634;52.138;9.912;2023-07-20T08:12:11;33.78;;;7.47;;
52740;SDS011;38634;52.138;9.912;2023-07-20T08:14:57;43.65;;;8.90;;
52740;SDS011;38634;52.138;9.912;2023-07-20T08:17:41;25.40;;;5.57;;
52740;SDS011;38634;52.138;9.912;2023-07-20T08:20:29;23.63;;;5.85;;
52740;SDS011;38634;52.138;9.912;2023-07-20T08:23:15;45.53;;;8.95;;
52740;SDS011;38634;52.138;9.912;2023-07-20T08:26:00;36.80;;;6.90;;
52740;SDS011;38634;52.138;9.912;2023-07-20T08:28:45;19.85;;;5.80;;
52740;SDS011;38634;52.138;9.912;2023-07-20T08:31:32;30.48;;;6.30;;
52740;SDS011;38634;52.138;9.912;2023-07-20T08:34:16;51.45;;;10.00;;
52740;SDS011;38634;52.138;9.912;2023-07-20T08:37:01;49.55;;;9.00;;
52740;SDS011;38634;52.138;9.912;2023-07-20T08:39:45;20.67;;;4.78;;
52740;SDS011;38634;52.138;9.912;2023-07-20T08:42:39;47.78;;;8.65;;
52740;SDS011;38634;52.138;9.912;2023-07-20T08:45:23;53.58;;;9.75;;
52740;SDS011;38634;52.138;9.912;2023-07-20T08:48:12;27.08;;;5.85;;
52740;SDS011;38634;52.138;9.912;2023-07-20T08:51:00;45.83;;;8.10;;
52740;SDS011;38634;52.138;9.912;2023-07-20T08:53:48;38.17;;;7.15;;
52740;SDS011;38634;52.138;9.912;2023-07-20T08:56:38;25.45;;;5.05;;
52740;SDS011;38634;52.138;9.912;2023-07-20T08:59:34;42.42;;;6.78;;
52740;SDS011;38634;52.138;9.912;2023-07-20T09:02:21;28.77;;;5.85;;
52740;SDS011;38634;52.138;9.912;2023-07-20T09:05:10;58.47;;;8.98;;
52740;SDS011;38634;52.138;9.912;2023-07-20T09:07:58;42.13;;;6.72;;
52740;SDS011;38634;52.138;9.912;2023-07-20T09:10:43;29.70;;;5.85;;
52740;SDS011;38634;52.138;9.912;2023-07-20T09:13:28;35.90;;;6.47;;
52740;SDS011;38634;52.138;9.912;2023-07-20T09:16:13;55.72;;;9.05;;
52740;SDS011;38634;52.138;9.912;2023-07-20T09:19:01;30.55;;;5.80;;
52740;SDS011;38634;52.138;9.912;2023-07-20T09:21:46;24.25;;;5.03;;
52740;SDS011;38634;52.138;9.912;2023-07-20T09:24:33;53.45;;;8.80;;
52740;SDS011;38634;52.138;9.912;2023-07-20T09:27:19;61.22;;;12.00;;
52740;SDS011;38634;52.138;9.912;2023-07-20T09:30:04;18.58;;;3.97;;
52740;SDS011;38634;52.138;9.912;2023-07-20T09:32:54;38.05;;;6.97;;
52740;SDS011;38634;52.138;9.912;2023-07-20T09:35:40;47.78;;;9.02;;
52740;SDS011;38634;52.138;9.912;2023-07-20T09:38:24;35.33;;;6.95;;
52740;SDS011;38634;52.138;9.912;2023-07-20T09:41:14;21.15;;;4.78;;
52740;SDS011;38634;52.138;9.912;2023-07-20T09:43:59;36.38;;;7.18;;
52740;SDS011;38634;52.138;9.912;2023-07-20T09:46:47;31.35;;;6.82;;
52740;SDS011;38634;52.138;9.912;2023-07-20T09:49:38;21.35;;;5.13;;
52740;SDS011;38634;52.138;9.912;2023-07-20T09:52:25;39.88;;;8.05;;
52740;SDS011;38634;52.138;9.912;2023-07-20T09:55:12;34.80;;;7.63;;
52740;SDS011;38634;52.138;9.912;2023-07-20T09:57:57;21.63;;;5.13;;
52740;SDS011;38634;52.138;9.912;2023-07-20T10:00:48;37.80;;;7.07;;
52740;SDS011;38634;52.138;9.912;2023-07-20T10:03:35;31.92;;;6.07;;
52740;SDS011;38634;52.138;9.912;2023-07-20T10:06:23;17.38;;;4.20;;
52740;SDS011;38634;52.138;9.912;2023-07-20T10:09:09;36.08;;;6.90;;
52740;SDS011;38634;52.138;9.912;2023-07-20T10:11:55;35.95;;;7.03;;
52740;SDS011;38634;52.138;9.912;2023-07-20T10:14:51;21.20;;;5.13;;
52740;SDS011;38634;52.138;9.912;2023-07-20T10:17:49;40.25;;;7.93;;
52740;SDS011;38634;52.138;9.912;2023-07-20T10:20:56;24.15;;;5.40;;
52740;SDS011;38634;52.138;9.912;2023-07-20T10:23:53;36.45;;;7.13;;
52740;SDS011;38634;52.138;9.912;2023-07-20T10:26:39;35.80;;;7.05;;
52740;SDS011;38634;52.138;9.912;2023-07-20T10:29:24;25.00;;;5.57;;
52740;SDS011;38634;52.138;9.912;2023-07-20T10:32:11;33.20;;;6.72;;
52740;SDS011;38634;52.138;9.912;2023-07-20T10:34:56;47.92;;;8.90;;
52740;SDS011;38634;52.138;9.912;2023-07-20T10:37:47;28.13;;;6.18;;
52740;SDS011;38634;52.138;9.912;2023-07-20T10:40:59;17.83;;;4.72;;
52740;SDS011;38634;52.138;9.912;2023-07-20T10:46:52;36.28;;;6.90;;
52740;SDS011;38634;52.138;9.912;2023-07-20T10:50:01;24.17;;;5.45;;
52740;SDS011;38634;52.138;9.912;2023-07-20T10:52:50;56.20;;;8.88;;
52740;SDS011;38634;52.138;9.912;2023-07-20T10:56:08;53.70;;;9.10;;
52740;SDS011;38634;52.138;9.912;2023-07-20T10:58:58;45.75;;;8.70;;
52740;SDS011;38634;52.138;9.912;2023-07-20T11:01:44;53.55;;;8.75;;
52740;SDS011;38634;52.138;9.912;2023-07-20T11:04:39;26.25;;;5.20;;
52740;SDS011;38634;52.138;9.912;2023-07-20T11:07:37;53.05;;;9.18;;
52740;SDS011;38634;52.138;9.912;2023-07-20T11:10:22;24.55;;;5.10;;
52740;SDS011;38634;52.138;9.912;2023-07-20T11:13:20;43.38;;;7.47;;
52740;SDS011;38634;52.138;9.912;2023-07-20T11:16:07;25.30;;;5.28;;
52740;SDS011;38634;52.138;9.912;2023-07-20T11:18:51;38.25;;;6.47;;
52740;SDS011;38634;52.138;9.912;2023-07-20T11:21:38;48.38;;;8.15;;
52740;SDS011;38634;52.138;9.912;2023-07-20T11:24:27;22.65;;;5.00;;
52740;SDS011;38634;52.138;9.912;2023-07-20T11:27:11;23.33;;;5.28;;
52740;SDS011;38634;52.138;9.912;2023-07-20T11:29:56;48.33;;;8.75;;
52740;SDS011;38634;52.138;9.912;2023-07-20T11:32:47;38.33;;;7.50;;
52740;SDS011;38634;52.138;9.912;2023-07-20T11:35:36;22.70;;;5.20;;
52740;SDS011;38634;52.138;9.912;2023-07-20T11:38:27;47.97;;;8.48;;
52740;SDS011;38634;52.138;9.912;2023-07-20T11:41:12;22.33;;;4.70;;
52740;SDS011;38634;52.138;9.912;2023-07-20T11:43:57;23.58;;;4.28;;
52740;SDS011;38634;52.138;9.912;2023-07-20T11:46:42;45.85;;;7.85;;
52740;SDS011;38634;52.138;9.912;2023-07-20T11:49:28;42.42;;;7.93;;
52740;SDS011;38634;52.138;9.912;2023-07-20T11:52:16;24.38;;;4.80;;
52740;SDS011;38634;52.138;9.912;2023-07-20T11:55:01;36.25;;;7.40;;
52740;SDS011;38634;52.138;9.912;2023-07-20T12:00:50;44.67;;;8.38;;
52740;SDS011;38634;52.138;9.912;2023-07-20T12:03:35;45.22;;;7.75;;
52740;SDS011;38634;52.138;9.912;2023-07-20T12:06:22;26.05;;;5.53;;
52740;SDS011;38634;52.138;9.912;2023-07-20T12:09:12;27.33;;;5.43;;
52740;SDS011;38634;52.138;9.912;2023-07-20T12:12:00;35.83;;;6.78;;
52740;SDS011;38634;52.138;9.912;2023-07-20T12:14:55;27.48;;;6.15;;
52740;SDS011;38634;52.138;9.912;2023-07-20T12:18:00;24.20;;;5.68;;
52740;SDS011;38634;52.138;9.912;2023-07-20T12:20:46;36.42;;;7.20;;
52740;SDS011;38634;52.138;9.912;2023-07-20T12:23:34;41.83;;;6.80;;
52740;SDS011;38634;52.138;9.912;2023-07-20T12:26:30;34.95;;;6.13;;
52740;SDS011;38634;52.138;9.912;2023-07-20T12:29:15;54.03;;;8.57;;
52740;SDS011;38634;52.138;9.912;2023-07-20T12:32:00;35.63;;;6.13;;
52740;SDS011;38634;52.138;9.912;2023-07-20T12:34:45;26.23;;;5.40;;
52740;SDS011;38634;52.138;9.912;2023-07-20T12:37:29;38.85;;;8.15;;
52740;SDS011;38634;52.138;9.912;2023-07-20T12:40:14;58.80;;;9.57;;
52740;SDS011;38634;52.138;9.912;2023-07-20T12:42:59;42.78;;;7.55;;
52740;SDS011;38634;52.138;9.912;2023-07-20T12:45:44;23.40;;;4.97;;
52740;SDS011;38634;52.138;9.912;2023-07-20T12:48:28;31.70;;;5.97;;
52740;SDS011;38634;52.138;9.912;2023-07-20T12:51:13;46.67;;;8.52;;
52740;SDS011;38634;52.138;9.912;2023-07-20T12:53:58;48.60;;;8.85;;
52740;SDS011;38634;52.138;9.912;2023-07-20T12:56:43;17.02;;;4.47;;
52740;SDS011;38634;52.138;9.912;2023-07-20T12:59:27;22.45;;;4.97;;
52740;SDS011;38634;52.138;9.912;2023-07-20T13:02:12;46.15;;;9.20;;
52740;SDS011;38634;52.138;9.912;2023-07-20T13:04:56;44.92;;;8.98;;
52740;SDS011;38634;52.138;9.912;2023-07-20T13:07:41;24.10;;;4.22;;
52740;SDS011;38634;52.138;9.912;2023-07-20T13:10:26;22.45;;;4.65;;
52740;SDS011;38634;52.138;9.912;2023-07-20T13:13:11;43.95;;;8.13;;
52740;SDS011;38634;52.138;9.912;2023-07-20T13:15:56;46.33;;;8.15;;
52740;SDS011;38634;52.138;9.912;2023-07-20T13:18:40;28.30;;;5.55;;
52740;SDS011;38634;52.138;9.912;2023-07-20T13:21:25;22.55;;;4.88;;
52740;SDS011;38634;52.138;9.912;2023-07-20T13:24:10;30.98;;;5.97;;
52740;SDS011;38634;52.138;9.912;2023-07-20T13:26:54;48.20;;;8.85;;
52740;SDS011;38634;52.138;9.912;2023-07-20T13:29:39;40.63;;;7.25;;
52740;SDS011;38634;52.138;9.912;2023-07-20T13:32:24;23.98;;;5.18;;
52740;SDS011;38634;52.138;9.912;2023-07-20T13:35:09;26.52;;;5.55;;
52740;SDS011;38634;52.138;9.912;2023-07-20T13:37:54;46.33;;;8.25;;
52740;SDS011;38634;52.138;9.912;2023-07-20T13:40:39;47.35;;;8.73;;
52740;SDS011;38634;52.138;9.912;2023-07-20T13:43:23;24.45;;;5.55;;
52740;SDS011;38634;52.138;9.912;2023-07-20T13:46:08;25.35;;;5.43;;
52740;SDS011;38634;52.138;9.912;2023-07-20T13:48:53;47.90;;;8.27;;
52740;SDS011;38634;52.138;9.912;2023-07-20T13:51:38;39.67;;;7.25;;
52740;SDS011;38634;52.138;9.912;2023-07-20T13:54:24;22.48;;;4.57;;
52740;SDS011;38634;52.138;9.912;2023-07-20T13:57:08;25.98;;;5.78;;
52740;SDS011;38634;52.138;9.912;2023-07-20T13:59:53;42.58;;;7.45;;
52740;SDS011;38634;52.138;9.912;2023-07-20T14:02:38;48.00;;;8.50;;
52740;SDS011;38634;52.138;9.912;2023-07-20T14:05:23;25.27;;;5.45;;
52740;SDS011;38634;52.138;9.912;2023-07-20T14:08:10;21.52;;;4.18;;
52740;SDS011;38634;52.138;9.912;2023-07-20T14:10:55;50.13;;;8.50;;
52740;SDS011;38634;52.138;9.912;2023-07-20T14:13:39;50.15;;;9.02;;
52740;SDS011;38634;52.138;9.912;2023-07-20T14:16:24;26.08;;;5.35;;
52740;SDS011;38634;52.138;9.912;2023-07-20T14:19:09;22.63;;;5.32;;
52740;SDS011;38634;52.138;9.912;2023-07-20T14:21:54;47.92;;;8.30;;
52740;SDS011;38634;52.138;9.912;2023-07-20T14:24:38;48.72;;;8.82;;
52740;SDS011;38634;52.138;9.912;2023-07-20T14:27:23;36.67;;;9.50;;
52740;SDS011;38634;52.138;9.912;2023-07-20T14:30:08;20.67;;;5.03;;
52740;SDS011;38634;52.138;9.912;2023-07-20T14:32:52;45.08;;;8.65;;
52740;SDS011;38634;52.138;9.912;2023-07-20T14:35:37;52.60;;;9.80;;
52740;SDS011;38634;52.138;9.912;2023-07-20T14:38:22;37.65;;;7.20;;
52740;SDS011;38634;52.138;9.912;2023-07-20T14:41:06;22.48;;;5.18;;
52740;SDS011;38634;52.138;9.912;2023-07-20T14:43:51;32.65;;;6.68;;
52740;SDS011;38634;52.138;9.912;2023-07-20T14:46:35;51.22;;;9.15;;
52740;SDS011;38634;52.138;9.912;2023-07-20T14:49:20;44.40;;;8.10;;
52740;SDS011;38634;52.138;9.912;2023-07-20T14:52:05;19.13;;;4.25;;
52740;SDS011;38634;52.138;9.912;2023-07-20T14:54:50;23.85;;;4.90;;
52740;SDS011;38634;52.138;9.912;2023-07-20T14:57:40;38.28;;;7.40;;
52740;SDS011;38634;52.138;9.912;2023-07-20T15:00:26;27.20;;;6.03;;
52740;SDS011;38634;52.138;9.912;2023-07-20T15:03:10;17.85;;;4.25;;
52740;SDS011;38634;52.138;9.912;2023-07-20T15:05:55;34.85;;;6.82;;
52740;SDS011;38634;52.138;9.912;2023-07-20T15:08:39;43.33;;;8.18;;
52740;SDS011;38634;52.138;9.912;2023-07-20T15:11:26;28.42;;;5.90;;
52740;SDS011;38634;52.138;9.912;2023-07-20T15:14:12;16.17;;;4.20;;
52740;SDS011;38634;52.138;9.912;2023-07-20T15:16:57;38.00;;;7.50;;
52740;SDS011;38634;52.138;9.912;2023-07-20T15:19:41;47.88;;;8.57;;
52740;SDS011;38634;52.138;9.912;2023-07-20T15:22:26;31.98;;;6.15;;
52740;SDS011;38634;52.138;9.912;2023-07-20T15:25:10;27.50;;;6.15;;
52740;SDS011;38634;52.138;9.912;2023-07-20T15:27:55;35.30;;;6.88;;
52740;SDS011;38634;52.138;9.912;2023-07-20T15:30:40;47.92;;;8.88;;
52740;SDS011;38634;52.138;9.912;2023-07-20T15:33:25;37.00;;;6.93;;
52740;SDS011;38634;52.138;9.912;2023-07-20T15:36:10;16.98;;;4.82;;
52740;SDS011;38634;52.138;9.912;2023-07-20T15:38:54;21.02;;;5.28;;
52740;SDS011;38634;52.138;9.912;2023-07-20T15:41:39;37.78;;;7.30;;
52740;SDS011;38634;52.138;9.912;2023-07-20T15:44:24;36.65;;;7.35;;
52740;SDS011;38634;52.138;9.912;2023-07-20T15:47:08;20.02;;;5.30;;
52740;SDS011;38634;52.138;9.912;2023-07-20T15:49:53;25.27;;;5.55;;
52740;SDS011;38634;52.138;9.912;2023-07-20T15:52:38;44.50;;;8.50;;
52740;SDS011;38634;52.138;9.912;2023-07-20T15:55:23;36.53;;;7.10;;
52740;SDS011;38634;52.138;9.912;2023-07-20T15:58:08;20.45;;;4.40;;
52740;SDS011;38634;52.138;9.912;2023-07-20T16:00:56;25.48;;;5.45;;
52740;SDS011;38634;52.138;9.912;2023-07-20T16:03:41;46.30;;;8.55;;
52740;SDS011;38634;52.138;9.912;2023-07-20T16:06:25;38.53;;;7.07;;
52740;SDS011;38634;52.138;9.912;2023-07-20T16:09:10;23.25;;;5.15;;
52740;SDS011;38634;52.138;9.912;2023-07-20T16:11:55;26.15;;;5.13;;
52740;SDS011;38634;52.138;9.912;2023-07-20T16:14:39;45.63;;;8.18;;
52740;SDS011;38634;52.138;9.912;2023-07-20T16:17:24;51.38;;;10.77;;
52740;SDS011;38634;52.138;9.912;2023-07-20T16:20:09;35.15;;;6.25;;
52740;SDS011;38634;52.138;9.912;2023-07-20T16:23:02;42.20;;;7.70;;
52740;SDS011;38634;52.138;9.912;2023-07-20T16:25:49;50.30;;;9.07;;
52740;SDS011;38634;52.138;9.912;2023-07-20T16:28:39;24.83;;;5.10;;
52740;SDS011;38634;52.138;9.912;2023-07-20T16:31:24;32.17;;;6.35;;
52740;SDS011;38634;52.138;9.912;2023-07-20T16:34:09;41.50;;;7.20;;
52740;SDS011;38634;52.138;9.912;2023-07-20T16:36:56;21.92;;;5.13;;
52740;SDS011;38634;52.138;9.912;2023-07-20T16:39:43;31.35;;;6.32;;
52740;SDS011;38634;52.138;9.912;2023-07-20T16:42:35;46.83;;;8.35;;
52740;SDS011;38634;52.138;9.912;2023-07-20T16:45:20;29.00;;;5.57;;
52740;SDS011;38634;52.138;9.912;2023-07-20T16:48:05;30.67;;;6.45;;
52740;SDS011;38634;52.138;9.912;2023-07-20T16:50:50;50.72;;;9.20;;
52740;SDS011;38634;52.138;9.912;2023-07-20T16:53:35;49.67;;;8.75;;
52740;SDS011;38634;52.138;9.912;2023-07-20T16:56:20;45.72;;;7.47;;
52740;SDS011;38634;52.138;9.912;2023-07-20T16:59:04;26.02;;;5.53;;
52740;SDS011;38634;52.138;9.912;2023-07-20T17:01:49;27.38;;;5.45;;
52740;SDS011;38634;52.138;9.912;2023-07-20T17:04:47;51.95;;;8.48;;
52740;SDS011;38634;52.138;9.912;2023-07-20T17:07:32;30.77;;;6.72;;
52740;SDS011;38634;52.138;9.912;2023-07-20T17:10:17;36.33;;;6.63;;
52740;SDS011;38634;52.138;9.912;2023-07-20T17:13:01;56.30;;;9.30;;
52740;SDS011;38634;52.138;9.912;2023-07-20T17:15:53;31.90;;;5.32;;
52740;SDS011;38634;52.138;9.912;2023-07-20T17:18:38;23.20;;;3.80;;
52740;SDS011;38634;52.138;9.912;2023-07-20T17:21:23;24.90;;;4.20;;
52740;SDS011;38634;52.138;9.912;2023-07-20T17:24:10;20.10;;;3.50;;
52740;SDS011;38634;52.138;9.912;2023-07-20T17:26:54;26.02;;;4.15;;
52740;SDS011;38634;52.138;9.912;2023-07-20T17:29:39;17.05;;;2.97;;
52740;SDS011;38634;52.138;9.912;2023-07-20T17:32:24;19.67;;;3.45;;
52740;SDS011;38634;52.138;9.912;2023-07-20T17:35:08;20.10;;;4.13;;
52740;SDS011;38634;52.138;9.912;2023-07-20T17:37:57;16.00;;;3.05;;
52740;SDS011;38634;52.138;9.912;2023-07-20T17:40:44;19.52;;;3.45;;
52740;SDS011;38634;52.138;9.912;2023-07-20T17:43:30;22.75;;;4.10;;
52740;SDS011;38634;52.138;9.912;2023-07-20T17:46:15;18.10;;;3.35;;
52740;SDS011;38634;52.138;9.912;2023-07-20T17:49:00;20.98;;;4.35;;
52740;SDS011;38634;52.138;9.912;2023-07-20T17:51:46;20.15;;;3.60;;
52740;SDS011;38634;52.138;9.912;2023-07-20T17:54:31;22.40;;;4.35;;
52740;SDS011;38634;52.138;9.912;2023-07-20T17:57:16;25.35;;;5.78;;
52740;SDS011;38634;52.138;9.912;2023-07-20T18:00:00;20.80;;;3.78;;
52740;SDS011;38634;52.138;9.912;2023-07-20T18:02:48;16.52;;;3.10;;
52740;SDS011;38634;52.138;9.912;2023-07-20T18:05:34;20.75;;;3.90;;
52740;SDS011;38634;52.138;9.912;2023-07-20T18:08:18;9.80;;;2.33;;
52740;SDS011;38634;52.138;9.912;2023-07-20T18:11:04;10.68;;;2.97;;
52740;SDS011;38634;52.138;9.912;2023-07-20T18:13:49;9.65;;;2.72;;
52740;SDS011;38634;52.138;9.912;2023-07-20T18:16:41;19.80;;;3.45;;
52740;SDS011;38634;52.138;9.912;2023-07-20T18:19:27;18.77;;;3.53;;
52740;SDS011;38634;52.138;9.912;2023-07-20T18:22:17;12.75;;;3.13;;
52740;SDS011;38634;52.138;9.912;2023-07-20T18:25:02;16.92;;;3.25;;
52740;SDS011;38634;52.138;9.912;2023-07-20T18:27:48;10.73;;;2.58;;
52740;SDS011;38634;52.138;9.912;2023-07-20T18:30:33;11.38;;;2.20;;
52740;SDS011;38634;52.138;9.912;2023-07-20T18:33:18;14.13;;;2.78;;
52740;SDS011;38634;52.138;9.912;2023-07-20T18:36:06;14.00;;;2.70;;
52740;SDS011;38634;52.138;9.912;2023-07-20T18:38:58;15.75;;;2.90;;
52740;SDS011;38634;52.138;9.912;2023-07-20T18:41:43;13.15;;;2.45;;
52740;SDS011;38634;52.138;9.912;2023-07-20T18:44:27;9.98;;;2.33;;
52740;SDS011;38634;52.138;9.912;2023-07-20T18:47:12;16.67;;;3.33;;
52740;SDS011;38634;52.138;9.912;2023-07-20T18:49:57;13.18;;;2.80;;
52740;SDS011;38634;52.138;9.912;2023-07-20T18:52:42;12.82;;;2.42;;
52740;SDS011;38634;52.138;9.912;2023-07-20T18:55:28;13.82;;;2.83;;
52740;SDS011;38634;52.138;9.912;2023-07-20T18:58:13;11.43;;;2.50;;
52740;SDS011;38634;52.138;9.912;2023-07-20T19:01:00;15.52;;;2.78;;
52740;SDS011;38634;52.138;9.912;2023-07-20T19:03:45;13.02;;;2.53;;
52740;SDS011;38634;52.138;9.912;2023-07-20T19:06:30;14.32;;;2.80;;
52740;SDS011;38634;52.138;9.912;2023-07-20T19:09:14;8.93;;;1.80;;
52740;SDS011;38634;52.138;9.912;2023-07-20T19:11:59;14.88;;;2.83;;
52740;SDS011;38634;52.138;9.912;2023-07-20T19:14:43;11.93;;;2.70;;
52740;SDS011;38634;52.138;9.912;2023-07-20T19:17:28;18.20;;;4.90;;
52740;SDS011;38634;52.138;9.912;2023-07-20T19:20:13;14.15;;;3.08;;
52740;SDS011;38634;52.138;9.912;2023-07-20T19:22:58;12.35;;;2.72;;
52740;SDS011;38634;52.138;9.912;2023-07-20T19:25:44;13.27;;;2.78;;
52740;SDS011;38634;52.138;9.912;2023-07-20T19:28:29;14.55;;;3.08;;
52740;SDS011;38634;52.138;9.912;2023-07-20T19:31:13;13.55;;;3.13;;
52740;SDS011;38634;52.138;9.912;2023-07-20T19:33:58;14.60;;;2.75;;
52740;SDS011;38634;52.138;9.912;2023-07-20T19:36:43;14.00;;;2.75;;
52740;SDS011;38634;52.138;9.912;2023-07-20T19:39:27;14.25;;;2.90;;
52740;SDS011;38634;52.138;9.912;2023-07-20T19:42:12;10.05;;;2.83;;
52740;SDS011;38634;52.138;9.912;2023-07-20T19:44:56;14.63;;;2.92;;
52740;SDS011;38634;52.138;9.912;2023-07-20T19:47:41;13.63;;;2.55;;
52740;SDS011;38634;52.138;9.912;2023-07-20T19:50:26;15.60;;;3.22;;
52740;SDS011;38634;52.138;9.912;2023-07-20T19:53:35;14.63;;;2.80;;
52740;SDS011;38634;52.138;9.912;2023-07-20T19:56:20;15.02;;;2.97;;
52740;SDS011;38634;52.138;9.912;2023-07-20T19:59:05;15.95;;;2.80;;
52740;SDS011;38634;52.138;9.912;2023-07-20T20:01:49;15.25;;;2.80;;
52740;SDS011;38634;52.138;9.912;2023-07-20T20:04:34;17.10;;;3.17;;
52740;SDS011;38634;52.138;9.912;2023-07-20T20:07:21;20.10;;;5.53;;
52740;SDS011;38634;52.138;9.912;2023-07-20T20:10:06;13.93;;;2.92;;
52740;SDS011;38634;52.138;9.912;2023-07-20T20:13:00;16.42;;;3.70;;
52740;SDS011;38634;52.138;9.912;2023-07-20T20:15:45;15.13;;;3.05;;
52740;SDS011;38634;52.138;9.912;2023-07-20T20:18:37;11.98;;;2.60;;
52740;SDS011;38634;52.138;9.912;2023-07-20T20:21:26;16.25;;;3.15;;
52740;SDS011;38634;52.138;9.912;2023-07-20T20:24:11;13.63;;;2.80;;
52740;SDS011;38634;52.138;9.912;2023-07-20T20:26:58;15.48;;;3.00;;
52740;SDS011;38634;52.138;9.912;2023-07-20T20:29:43;13.65;;;2.75;;
52740;SDS011;38634;52.138;9.912;2023-07-20T20:32:27;14.52;;;2.67;;
52740;SDS011;38634;52.138;9.912;2023-07-20T20:35:12;14.90;;;3.25;;
52740;SDS011;38634;52.138;9.912;2023-07-20T20:37:59;16.30;;;2.90;;
52740;SDS011;38634;52.138;9.912;2023-07-20T20:40:47;15.88;;;2.95;;
52740;SDS011;38634;52.138;9.912;2023-07-20T20:43:41;14.95;;;2.97;;
52740;SDS011;38634;52.138;9.912;2023-07-20T20:46:29;9.65;;;2.83;;
52740;SDS011;38634;52.138;9.912;2023-07-20T20:49:14;13.13;;;2.95;;
52740;SDS011;38634;52.138;9.912;2023-07-20T20:51:59;12.00;;;2.72;;
52740;SDS011;38634;52.138;9.912;2023-07-20T20:54:44;14.00;;;3.30;;
52740;SDS011;38634;52.138;9.912;2023-07-20T20:57:30;8.30;;;2.97;;
52740;SDS011;38634;52.138;9.912;2023-07-20T21:00:18;15.05;;;3.58;;
52740;SDS011;38634;52.138;9.912;2023-07-20T21:03:02;10.73;;;2.70;;
52740;SDS011;38634;52.138;9.912;2023-07-20T21:05:55;12.82;;;3.03;;
52740;SDS011;38634;52.138;9.912;2023-07-20T21:08:41;7.45;;;2.40;;
52740;SDS011;38634;52.138;9.912;2023-07-20T21:11:25;10.00;;;2.80;;
52740;SDS011;38634;52.138;9.912;2023-07-20T21:14:10;8.90;;;2.72;;
52740;SDS011;38634;52.138;9.912;2023-07-20T21:16:54;13.18;;;2.78;;
52740;SDS011;38634;52.138;9.912;2023-07-20T21:19:39;14.20;;;3.13;;
52740;SDS011;38634;52.138;9.912;2023-07-20T21:22:29;13.02;;;3.00;;
52740;SDS011;38634;52.138;9.912;2023-07-20T21:25:14;16.73;;;3.47;;
52740;SDS011;38634;52.138;9.912;2023-07-20T21:27:58;14.35;;;3.08;;
52740;SDS011;38634;52.138;9.912;2023-07-20T21:30:44;14.73;;;2.65;;
52740;SDS011;38634;52.138;9.912;2023-07-20T21:33:29;9.75;;;2.15;;
52740;SDS011;38634;52.138;9.912;2023-07-20T21:36:14;15.23;;;2.97;;
52740;SDS011;38634;52.138;9.912;2023-07-20T21:38:59;14.30;;;3.05;;
52740;SDS011;38634;52.138;9.912;2023-07-20T21:41:46;14.55;;;3.35;;
52740;SDS011;38634;52.138;9.912;2023-07-20T21:44:31;14.60;;;3.47;;
52740;SDS011;38634;52.138;9.912;2023-07-20T21:47:15;17.85;;;5.38;;
52740;SDS011;38634;52.138;9.912;2023-07-20T21:50:02;13.73;;;2.88;;
52740;SDS011;38634;52.138;9.912;2023-07-20T21:52:47;13.35;;;3.10;;
52740;SDS011;38634;52.138;9.912;2023-07-20T21:55:31;9.80;;;2.33;;
52740;SDS011;38634;52.138;9.912;2023-07-20T21:58:16;12.13;;;2.90;;
52740;SDS011;38634;52.138;9.912;2023-07-20T22:01:04;9.15;;;2.53;;
52740;SDS011;38634;52.138;9.912;2023-07-20T22:03:52;8.00;;;2.58;;
52740;SDS011;38634;52.138;9.912;2023-07-20T22:06:36;11.63;;;3.53;;
52740;SDS011;38634;52.138;9.912;2023-07-20T22:09:29;14.45;;;3.28;;
52740;SDS011;38634;52.138;9.912;2023-07-20T22:12:14;14.52;;;3.03;;
52740;SDS011;38634;52.138;9.912;2023-07-20T22:15:01;16.35;;;3.60;;
52740;SDS011;38634;52.138;9.912;2023-07-20T22:17:46;12.85;;;2.78;;
52740;SDS011;38634;52.138;9.912;2023-07-20T22:20:31;13.98;;;2.97;;
52740;SDS011;38634;52.138;9.912;2023-07-20T22:23:15;13.77;;;2.90;;
52740;SDS011;38634;52.138;9.912;2023-07-20T22:26:00;7.35;;;2.30;;
52740;SDS011;38634;52.138;9.912;2023-07-20T22:28:44;17.60;;;3.67;;
52740;SDS011;38634;52.138;9.912;2023-07-20T22:31:29;12.90;;;2.80;;
52740;SDS011;38634;52.138;9.912;2023-07-20T22:34:15;10.45;;;3.65;;
52740;SDS011;38634;52.138;9.912;2023-07-20T22:37:01;15.85;;;3.95;;
52740;SDS011;38634;52.138;9.912;2023-07-20T22:39:48;15.35;;;3.10;;